Time;durP1;ratioP1;P1;durP2;ratioP2;P2;SDS_P1;SDS_P2;PMS_P1;PMS_P2;Temp;Humidity;BMP_temperature;BMP_pressure;BME280_temperature;BME280_humidity;BME280_pressure;Samples;Min_cycle;Max_cycle;Signal;HPM_P1;HPM_P2
2022/11/12 00:00:01;;;;;;;40.13;22.60;;;;;;;;;;5080346;28;20145;-78
2022/11/12 00:02:27;;;;;;;46.55;24.40;;;;;;;;;;5092158;28;20029;-77
2022/11/12 00:04:53;;;;;;;43.78;23.13;;;;;;;;;;5094765;28;20152;-76
2022/11/12 00:07:19;;;;;;;44.95;23.35;;;;;;;;;;5093901;28;20028;-76
2022/11/12 00:09:45;;;;;;;42.75;23.30;;;;;;;;;;5086362;28;20028;-77
2022/11/12 00:12:11;;;;;;;39.83;23.67;;;;;;;;;;5082535;28;20029;-76
2022/11/12 00:14:37;;;;;;;43.85;23.63;;;;;;;;;;5081627;28;20028;-78
2022/11/12 00:17:03;;;;;;;46.53;25.20;;;;;;;;;;5078103;28;20025;-77
2022/11/12 00:19:29;;;;;;;44.72;23.77;;;;;;;;;;5074872;28;20470;-78
2022/11/12 00:21:54;;;;;;;48.85;24.65;;;;;;;;;;5075754;28;20032;-77
2022/11/12 00:24:20;;;;;;;44.47;23.85;;;;;;;;;;5084353;28;20016;-77
2022/11/12 00:26:46;;;;;;;46.85;24.42;;;;;;;;;;5096310;28;20032;-76
2022/11/12 00:29:12;;;;;;;41.92;23.45;;;;;;;;;;5082752;28;20036;-77
2022/11/12 00:31:38;;;;;;;47.85;24.75;;;;;;;;;;5085265;28;20054;-76
2022/11/12 00:34:04;;;;;;;47.60;24.13;;;;;;;;;;5091165;28;20033;-76
2022/11/12 00:36:30;;;;;;;39.63;23.38;;;;;;;;;;5087819;28;20096;-77
2022/11/12 00:38:56;;;;;;;45.08;24.95;;;;;;;;;;5089732;28;20029;-77
2022/11/12 00:41:22;;;;;;;45.63;23.83;;;;;;;;;;5090487;28;20025;-76
2022/11/12 00:43:48;;;;;;;44.33;24.00;;;;;;;;;;5089906;28;20024;-76
2022/11/12 00:46:14;;;;;;;50.45;24.23;;;;;;;;;;5090177;28;20033;-76
2022/11/12 00:48:40;;;;;;;44.30;22.58;;;;;;;;;;5090396;28;20051;-78
2022/11/12 00:51:06;;;;;;;45.55;22.90;;;;;;;;;;5088188;28;20062;-77
2022/11/12 00:53:32;;;;;;;47.03;22.52;;;;;;;;;;5078974;28;20055;-78
2022/11/12 00:56:02;;;;;;;44.92;22.08;;;;;;;;;;5079216;28;20032;-78
2022/11/12 00:58:29;;;;;;;43.33;21.08;;;;;;;;;;5082961;28;20054;-78
2022/11/12 01:00:55;;;;;;;42.08;23.40;;;;;;;;;;5081791;28;20489;-78
2022/11/12 01:03:21;;;;;;;42.53;21.42;;;;;;;;;;5077596;28;20510;-77
2022/11/12 01:05:47;;;;;;;38.55;21.33;;;;;;;;;;5075793;28;20035;-79
2022/11/12 01:08:13;;;;;;;47.15;22.02;;;;;;;;;;5079032;28;20035;-77
2022/11/12 01:10:39;;;;;;;40.72;21.02;;;;;;;;;;5078225;28;20068;-79
2022/11/12 01:13:05;;;;;;;37.85;20.27;;;;;;;;;;5079973;28;20039;-78
2022/11/12 01:15:31;;;;;;;41.53;20.60;;;;;;;;;;5079387;28;20033;-78
2022/11/12 01:17:57;;;;;;;39.10;20.40;;;;;;;;;;5082320;28;20024;-78
2022/11/12 01:20:22;;;;;;;42.80;20.13;;;;;;;;;;5087961;28;20017;-78
2022/11/12 01:22:48;;;;;;;34.40;20.13;;;;;;;;;;5089974;28;20024;-78
2022/11/12 01:25:14;;;;;;;38.03;18.98;;;;;;;;;;5095105;28;20638;-77
2022/11/12 01:27:40;;;;;;;34.10;18.52;;;;;;;;;;5096540;28;20084;-77
2022/11/12 01:30:07;;;;;;;40.00;18.67;;;;;;;;;;5093890;28;20040;-77
2022/11/12 01:32:36;;;;;;;41.83;19.65;;;;;;;;;;5092624;28;20025;-78
2022/11/12 01:35:02;;;;;;;31.83;17.48;;;;;;;;;;5082530;28;20107;-79
2022/11/12 01:37:28;;;;;;;31.58;17.17;;;;;;;;;;5079754;28;20067;-77
2022/11/12 01:39:54;;;;;;;30.45;17.10;;;;;;;;;;5078928;28;20028;-77
2022/11/12 01:42:20;;;;;;;37.22;16.85;;;;;;;;;;5077727;28;20020;-78
2022/11/12 01:44:46;;;;;;;29.95;16.80;;;;;;;;;;5078708;28;20060;-76
2022/11/12 01:47:14;;;;;;;30.90;15.95;;;;;;;;;;5076574;28;20115;-78
2022/11/12 01:49:43;;;;;;;28.98;15.77;;;;;;;;;;5076238;28;20043;-77
2022/11/12 01:52:12;;;;;;;33.95;15.95;;;;;;;;;;5076149;28;20048;-77
2022/11/12 01:54:38;;;;;;;29.70;15.43;;;;;;;;;;5075785;28;20059;-78
2022/11/12 01:57:04;;;;;;;33.10;15.43;;;;;;;;;;5076594;28;20035;-77
2022/11/12 01:59:35;;;;;;;29.50;15.25;;;;;;;;;;5078162;28;20024;-77
2022/11/12 02:02:01;;;;;;;28.02;14.98;;;;;;;;;;5076166;28;20028;-76
2022/11/12 02:04:27;;;;;;;27.10;14.80;;;;;;;;;;5076860;28;20378;-77
2022/11/12 02:06:55;;;;;;;31.42;15.65;;;;;;;;;;5077157;28;20393;-78
2022/11/12 02:09:21;;;;;;;30.58;15.90;;;;;;;;;;5076124;28;20047;-79
2022/11/12 02:11:47;;;;;;;37.50;16.52;;;;;;;;;;5076954;28;20028;-77
2022/11/12 02:14:13;;;;;;;28.15;15.57;;;;;;;;;;5077145;28;20025;-77
2022/11/12 02:16:41;;;;;;;29.25;16.30;;;;;;;;;;5076668;28;20025;-78
2022/11/12 02:19:08;;;;;;;30.73;16.40;;;;;;;;;;5077307;28;20028;-77
2022/11/12 02:21:34;;;;;;;30.52;15.75;;;;;;;;;;5076984;28;20465;-76
2022/11/12 02:24:01;;;;;;;31.75;15.02;;;;;;;;;;5077301;28;20035;-77
2022/11/12 02:26:29;;;;;;;33.63;16.52;;;;;;;;;;5077204;28;20465;-78
2022/11/12 02:28:55;;;;;;;31.85;16.08;;;;;;;;;;5077701;28;20056;-77
2022/11/12 02:31:21;;;;;;;29.58;15.75;;;;;;;;;;5076080;28;20023;-78
2022/11/12 02:33:47;;;;;;;37.53;17.20;;;;;;;;;;5076575;28;20016;-77
2022/11/12 02:36:13;;;;;;;28.45;15.90;;;;;;;;;;5079568;28;20025;-78
2022/11/12 02:38:39;;;;;;;25.25;15.63;;;;;;;;;;5076302;28;20492;-77
2022/11/12 02:41:05;;;;;;;30.05;16.27;;;;;;;;;;5079094;28;20521;-78
2022/11/12 02:43:31;;;;;;;29.00;16.20;;;;;;;;;;5080063;28;20485;-77
2022/11/12 02:45:57;;;;;;;28.92;16.38;;;;;;;;;;5079853;28;20401;-77
2022/11/12 02:48:23;;;;;;;33.40;17.25;;;;;;;;;;5079934;28;20158;-77
2022/11/12 02:50:49;;;;;;;31.95;17.05;;;;;;;;;;5078371;28;20036;-77
2022/11/12 02:53:15;;;;;;;29.85;15.85;;;;;;;;;;5079110;28;20028;-77
2022/11/12 02:55:42;;;;;;;27.80;16.10;;;;;;;;;;5077834;28;20474;-78
2022/11/12 02:58:08;;;;;;;29.40;16.38;;;;;;;;;;5076952;28;20024;-77
2022/11/12 03:00:33;;;;;;;32.90;16.60;;;;;;;;;;5075646;28;20032;-78
2022/11/12 03:03:00;;;;;;;32.35;16.58;;;;;;;;;;5091150;28;20049;-77
2022/11/12 03:05:30;;;;;;;29.42;16.45;;;;;;;;;;5096002;28;20020;-77
2022/11/12 03:08:00;;;;;;;30.80;16.70;;;;;;;;;;5092860;28;20080;-77
2022/11/12 03:10:26;;;;;;;29.67;17.23;;;;;;;;;;5086832;28;20070;-77
2022/11/12 03:12:53;;;;;;;32.15;17.38;;;;;;;;;;5092719;28;20046;-77
2022/11/12 03:15:19;;;;;;;36.40;16.48;;;;;;;;;;5096706;28;20033;-78
2022/11/12 03:17:45;;;;;;;30.88;15.73;;;;;;;;;;5079133;28;20074;-77
2022/11/12 03:20:11;;;;;;;30.33;16.20;;;;;;;;;;5075235;28;20450;-78
2022/11/12 03:22:37;;;;;;;28.02;16.13;;;;;;;;;;5074303;28;20066;-77
2022/11/12 03:25:04;;;;;;;27.58;15.73;;;;;;;;;;5075389;28;20024;-78
2022/11/12 03:27:30;;;;;;;31.27;16.45;;;;;;;;;;5073768;28;20032;-76
2022/11/12 03:29:56;;;;;;;27.65;16.02;;;;;;;;;;5075000;28;20055;-77
2022/11/12 03:32:22;;;;;;;35.05;17.40;;;;;;;;;;5073296;28;20082;-77
2022/11/12 03:34:48;;;;;;;31.98;16.92;;;;;;;;;;5075349;28;20123;-78
2022/11/12 03:37:14;;;;;;;26.58;17.58;;;;;;;;;;5075709;28;20024;-76
2022/11/12 03:39:40;;;;;;;35.60;17.20;;;;;;;;;;5072735;28;20027;-76
2022/11/12 03:42:06;;;;;;;32.00;17.27;;;;;;;;;;5075743;28;20020;-77
2022/11/12 03:44:32;;;;;;;33.50;17.35;;;;;;;;;;5074624;28;20416;-77
2022/11/12 03:46:58;;;;;;;33.22;16.65;;;;;;;;;;5074583;28;20028;-77
2022/11/12 03:49:24;;;;;;;33.47;17.48;;;;;;;;;;5074729;28;20057;-77
2022/11/12 03:51:50;;;;;;;29.52;17.27;;;;;;;;;;5077104;28;20123;-77
2022/11/12 03:54:16;;;;;;;34.83;17.23;;;;;;;;;;5082441;28;20501;-77
2022/11/12 03:56:42;;;;;;;34.30;18.58;;;;;;;;;;5082924;28;20027;-77
2022/11/12 03:59:08;;;;;;;33.97;18.23;;;;;;;;;;5079713;28;20493;-77
2022/11/12 04:01:34;;;;;;;35.53;19.02;;;;;;;;;;5086662;28;20526;-77
2022/11/12 04:04:00;;;;;;;31.20;17.45;;;;;;;;;;5086862;28;20032;-77
2022/11/12 04:09:10;;;;;;;39.83;18.50;;;;;;;;;;5085636;28;20566;-77
2022/11/12 04:11:36;;;;;;;35.45;18.38;;;;;;;;;;5088613;28;20032;-77
2022/11/12 04:14:02;;;;;;;35.10;18.30;;;;;;;;;;5097242;28;20031;-76
2022/11/12 04:22:04;;;;;;;37.10;18.75;;;;;;;;;;5094174;28;20511;-77
2022/11/12 04:27:23;;;;;;;35.72;18.13;;;;;;;;;;5094114;28;20054;-76
2022/11/12 04:32:35;;;;;;;31.48;18.67;;;;;;;;;;5074654;28;20124;-77
2022/11/12 04:35:02;;;;;;;28.80;17.02;;;;;;;;;;5074133;28;20035;-77
2022/11/12 04:37:42;;;;;;;36.47;18.10;;;;;;;;;;5072689;28;20024;-77
2022/11/12 04:44:58;;;;;;;36.50;18.73;;;;;;;;;;5073542;28;20046;-78
2022/11/12 04:45:41;;;;;;;31.58;18.10;;;;;;;;;;5074406;28;20032;-78
2022/11/12 04:48:06;;;;;;;35.80;19.60;;;;;;;;;;5078876;28;20028;-78
2022/11/12 04:50:33;;;;;;;32.10;18.85;;;;;;;;;;5074665;28;20032;-77
2022/11/12 04:52:59;;;;;;;37.90;18.77;;;;;;;;;;5074059;28;20016;-77
2022/11/12 04:55:25;;;;;;;42.40;20.48;;;;;;;;;;5072544;28;20032;-77
2022/11/12 04:57:51;;;;;;;35.83;18.88;;;;;;;;;;5073445;28;20028;-77
2022/11/12 05:00:17;;;;;;;32.03;18.10;;;;;;;;;;5073303;28;20021;-77
2022/11/12 05:02:43;;;;;;;29.58;17.85;;;;;;;;;;5073034;28;20036;-77
2022/11/12 05:05:09;;;;;;;35.72;18.90;;;;;;;;;;5073415;28;20486;-77
2022/11/12 05:07:35;;;;;;;35.03;19.42;;;;;;;;;;5073886;28;20351;-78
2022/11/12 05:10:01;;;;;;;48.92;22.02;;;;;;;;;;5074063;28;20081;-78
2022/11/12 05:12:27;;;;;;;34.08;19.55;;;;;;;;;;5075516;28;20032;-77
2022/11/12 05:14:53;;;;;;;34.65;19.05;;;;;;;;;;5075432;28;20408;-78
2022/11/12 05:17:19;;;;;;;30.15;18.15;;;;;;;;;;5075837;28;20016;-77
2022/11/12 05:19:44;;;;;;;36.75;19.40;;;;;;;;;;5076665;28;20079;-76
2022/11/12 05:22:11;;;;;;;34.72;18.63;;;;;;;;;;5078934;28;20028;-77
2022/11/12 05:24:38;;;;;;;33.30;18.42;;;;;;;;;;5088245;28;20024;-77
2022/11/12 05:27:06;;;;;;;30.55;17.50;;;;;;;;;;5088017;28;20032;-78
2022/11/12 05:29:31;;;;;;;37.67;17.17;;;;;;;;;;5087436;28;20036;-78
2022/11/12 05:31:57;;;;;;;29.25;17.58;;;;;;;;;;5074515;28;20387;-77
2022/11/12 05:34:23;;;;;;;33.55;19.00;;;;;;;;;;5073905;28;20451;-76
2022/11/12 05:36:49;;;;;;;30.05;18.15;;;;;;;;;;5072383;28;20021;-76
2022/11/12 05:39:15;;;;;;;31.35;18.02;;;;;;;;;;5072674;28;20541;-77
2022/11/12 05:41:41;;;;;;;30.20;18.83;;;;;;;;;;5072790;28;20028;-76
2022/11/12 05:44:07;;;;;;;34.92;18.17;;;;;;;;;;5073364;28;20078;-78
2022/11/12 05:46:33;;;;;;;38.13;17.92;;;;;;;;;;5073170;28;20027;-77
2022/11/12 05:48:59;;;;;;;33.83;18.38;;;;;;;;;;5072077;28;20077;-77
2022/11/12 05:51:25;;;;;;;29.13;18.02;;;;;;;;;;5072093;28;20532;-77
2022/11/12 05:53:51;;;;;;;34.17;18.70;;;;;;;;;;5073382;28;20445;-77
2022/11/12 05:56:17;;;;;;;31.85;18.15;;;;;;;;;;5072277;28;20469;-78
2022/11/12 05:58:43;;;;;;;34.40;17.75;;;;;;;;;;5073958;28;20407;-77
2022/11/12 06:01:09;;;;;;;30.63;17.30;;;;;;;;;;5073250;28;20017;-77
2022/11/12 06:03:35;;;;;;;33.58;18.05;;;;;;;;;;5075055;28;20465;-78
2022/11/12 06:06:01;;;;;;;33.60;18.40;;;;;;;;;;5073331;28;20035;-77
2022/11/12 06:08:27;;;;;;;39.78;19.77;;;;;;;;;;5075178;28;20023;-77
2022/11/12 06:10:54;;;;;;;33.70;17.88;;;;;;;;;;5077755;28;20489;-78
2022/11/12 06:13:21;;;;;;;32.42;17.73;;;;;;;;;;5076712;28;20033;-77
2022/11/12 06:15:46;;;;;;;35.53;19.27;;;;;;;;;;5078297;28;20082;-77
2022/11/12 06:18:13;;;;;;;38.80;20.13;;;;;;;;;;5078351;28;20431;-77
2022/11/12 06:20:39;;;;;;;39.35;18.52;;;;;;;;;;5078214;28;20399;-77
2022/11/12 06:23:05;;;;;;;30.58;18.30;;;;;;;;;;5077352;28;20043;-77
2022/11/12 06:25:31;;;;;;;37.70;19.45;;;;;;;;;;5077096;28;20222;-77
2022/11/12 06:27:57;;;;;;;32.25;18.23;;;;;;;;;;5076614;28;20036;-76
2022/11/12 06:30:23;;;;;;;33.58;17.83;;;;;;;;;;5076654;28;20032;-77
2022/11/12 06:32:49;;;;;;;33.42;17.73;;;;;;;;;;5076898;28;20212;-76
2022/11/12 06:35:16;;;;;;;32.50;18.25;;;;;;;;;;5077029;28;20098;-77
2022/11/12 06:37:42;;;;;;;28.83;18.40;;;;;;;;;;5076991;28;20021;-76
2022/11/12 06:40:09;;;;;;;36.08;20.63;;;;;;;;;;5076252;28;20032;-78
2022/11/12 06:42:35;;;;;;;35.63;19.77;;;;;;;;;;5081466;28;20028;-76
2022/11/12 06:45:01;;;;;;;35.28;18.73;;;;;;;;;;5080408;28;20033;-77
2022/11/12 06:47:27;;;;;;;39.17;20.17;;;;;;;;;;5080269;28;20024;-77
2022/11/12 06:49:53;;;;;;;38.83;20.58;;;;;;;;;;5077607;28;20074;-77
2022/11/12 06:52:19;;;;;;;34.33;19.00;;;;;;;;;;5075629;28;20021;-78
2022/11/12 06:54:44;;;;;;;34.88;19.05;;;;;;;;;;5077508;28;20068;-77
2022/11/12 06:57:11;;;;;;;34.47;18.23;;;;;;;;;;5074264;28;20075;-77
2022/11/12 06:59:37;;;;;;;38.08;19.75;;;;;;;;;;5075867;28;20047;-76
2022/11/12 07:02:03;;;;;;;30.40;18.58;;;;;;;;;;5075701;28;20538;-76
2022/11/12 07:04:29;;;;;;;35.00;19.80;;;;;;;;;;5075513;28;20039;-76
2022/11/12 07:06:55;;;;;;;34.13;19.00;;;;;;;;;;5075525;28;20028;-77
2022/11/12 07:09:21;;;;;;;32.33;18.63;;;;;;;;;;5075996;28;20069;-77
2022/11/12 07:11:47;;;;;;;35.30;18.67;;;;;;;;;;5076790;28;20051;-75
2022/11/12 07:14:13;;;;;;;31.73;19.75;;;;;;;;;;5080698;28;20177;-76
2022/11/12 07:16:39;;;;;;;36.63;18.70;;;;;;;;;;5082239;28;20012;-76
2022/11/12 07:19:05;;;;;;;34.13;19.85;;;;;;;;;;5079655;28;20398;-77
2022/11/12 07:21:31;;;;;;;37.67;19.35;;;;;;;;;;5076540;28;20032;-76
2022/11/12 07:23:57;;;;;;;36.30;19.42;;;;;;;;;;5076062;28;20024;-77
2022/11/12 07:26:24;;;;;;;37.72;20.15;;;;;;;;;;5074246;28;20111;-76
2022/11/12 07:28:56;;;;;;;40.05;21.23;;;;;;;;;;5076480;28;20033;-78
2022/11/12 07:31:22;;;;;;;42.60;23.70;;;;;;;;;;5079483;28;20032;-77
2022/11/12 07:33:48;;;;;;;38.40;21.65;;;;;;;;;;5082645;28;20032;-77
2022/11/12 07:36:16;;;;;;;39.05;21.00;;;;;;;;;;5078018;28;20060;-76
2022/11/12 07:38:42;;;;;;;36.20;19.98;;;;;;;;;;5093029;28;20040;-76
2022/11/12 07:41:13;;;;;;;37.55;20.17;;;;;;;;;;5092128;28;20104;-77
2022/11/12 07:43:40;;;;;;;32.33;18.77;;;;;;;;;;5095079;28;20021;-76
2022/11/12 07:46:16;;;;;;;49.25;22.80;;;;;;;;;;5092996;28;20032;-77
2022/11/12 07:48:43;;;;;;;41.83;20.02;;;;;;;;;;5079182;28;20020;-77
2022/11/12 07:51:09;;;;;;;38.80;20.10;;;;;;;;;;5086919;28;20028;-76
2022/11/12 07:53:35;;;;;;;34.42;20.60;;;;;;;;;;5082401;28;20089;-76
2022/11/12 07:56:03;;;;;;;31.75;18.85;;;;;;;;;;5081518;28;20033;-77
2022/11/12 07:58:30;;;;;;;31.38;17.35;;;;;;;;;;5082528;28;20028;-76
2022/11/12 08:00:56;;;;;;;29.80;17.85;;;;;;;;;;5078758;28;20101;-77
2022/11/12 08:03:22;;;;;;;29.95;15.85;;;;;;;;;;5091358;28;20036;-79
2022/11/12 08:05:49;;;;;;;36.30;17.63;;;;;;;;;;5090976;28;20009;-77
2022/11/12 08:08:15;;;;;;;26.25;14.35;;;;;;;;;;5076830;28;20064;-78
2022/11/12 08:10:41;;;;;;;25.63;14.35;;;;;;;;;;5075444;28;20036;-78
2022/11/12 08:13:07;;;;;;;23.83;14.63;;;;;;;;;;5077918;28;20028;-77
2022/11/12 08:15:33;;;;;;;25.90;13.90;;;;;;;;;;5078847;28;20022;-78
2022/11/12 08:17:59;;;;;;;23.63;13.75;;;;;;;;;;5077678;28;20519;-78
2022/11/12 08:20:25;;;;;;;27.33;13.65;;;;;;;;;;5078473;28;20059;-78
2022/11/12 08:22:51;;;;;;;26.15;13.80;;;;;;;;;;5078327;28;20103;-79
2022/11/12 08:25:17;;;;;;;20.88;12.60;;;;;;;;;;5075034;28;20056;-77
2022/11/12 08:27:43;;;;;;;23.75;12.98;;;;;;;;;;5075820;28;20048;-77
2022/11/12 08:30:10;;;;;;;24.40;12.70;;;;;;;;;;5076237;28;20039;-77
2022/11/12 08:32:36;;;;;;;22.95;12.52;;;;;;;;;;5075040;28;20052;-77
2022/11/12 08:35:01;;;;;;;24.80;12.65;;;;;;;;;;5077143;28;20024;-78
2022/11/12 08:37:27;;;;;;;20.13;11.23;;;;;;;;;;5074417;28;20025;-77
2022/11/12 08:39:53;;;;;;;21.50;11.43;;;;;;;;;;5076043;28;20482;-76
2022/11/12 08:42:19;;;;;;;25.85;12.60;;;;;;;;;;5076969;28;20021;-76
2022/11/12 08:44:45;;;;;;;71.50;42.42;;;;;;;;;;5079425;28;20028;-77
2022/11/12 08:47:12;;;;;;;22.08;13.98;;;;;;;;;;5075528;28;20029;-78
2022/11/12 08:49:37;;;;;;;27.17;15.95;;;;;;;;;;5077848;28;20025;-78
2022/11/12 08:52:04;;;;;;;30.13;15.48;;;;;;;;;;5091251;28;20027;-78
2022/11/12 08:54:29;;;;;;;23.40;13.55;;;;;;;;;;5096881;28;20020;-76
2022/11/12 08:56:55;;;;;;;24.75;12.25;;;;;;;;;;5096624;28;20033;-76
2022/11/12 08:59:21;;;;;;;30.65;17.77;;;;;;;;;;5090982;28;20492;-78
2022/11/12 09:01:47;;;;;;;26.48;14.25;;;;;;;;;;5076971;28;20504;-76
2022/11/12 09:04:13;;;;;;;20.75;11.20;;;;;;;;;;5076104;28;20025;-76
2022/11/12 09:06:39;;;;;;;23.92;11.57;;;;;;;;;;5078691;28;20484;-77
2022/11/12 09:09:05;;;;;;;19.25;11.63;;;;;;;;;;5079299;28;20040;-76
2022/11/12 09:11:31;;;;;;;18.65;12.43;;;;;;;;;;5082290;28;20150;-78
2022/11/12 09:13:57;;;;;;;24.45;11.88;;;;;;;;;;5080027;28;20021;-76
2022/11/12 09:16:23;;;;;;;23.85;10.10;;;;;;;;;;5082940;28;20025;-77
2022/11/12 09:18:49;;;;;;;21.88;11.95;;;;;;;;;;5085314;28;20074;-78
2022/11/12 09:21:16;;;;;;;21.77;11.93;;;;;;;;;;5081581;28;20029;-79
2022/11/12 09:23:42;;;;;;;22.98;11.98;;;;;;;;;;5082036;28;20029;-78
2022/11/12 09:26:08;;;;;;;21.73;11.45;;;;;;;;;;5080920;28;20017;-78
2022/11/12 09:28:34;;;;;;;20.65;11.52;;;;;;;;;;5079585;28;20032;-78
2022/11/12 09:31:01;;;;;;;20.02;11.00;;;;;;;;;;5080236;28;20443;-78
2022/11/12 09:33:29;;;;;;;21.45;11.07;;;;;;;;;;5087823;28;20025;-77
2022/11/12 09:35:56;;;;;;;27.40;14.77;;;;;;;;;;5087946;28;20064;-76
2022/11/12 09:38:22;;;;;;;24.83;11.30;;;;;;;;;;5083933;28;20032;-77
2022/11/12 09:40:50;;;;;;;20.17;11.80;;;;;;;;;;5085026;28;20024;-78
2022/11/12 09:43:22;;;;;;;17.33;10.52;;;;;;;;;;5081085;28;20025;-78
2022/11/12 09:45:48;;;;;;;20.80;11.35;;;;;;;;;;5085290;28;20024;-77
2022/11/12 09:48:18;;;;;;;21.85;10.65;;;;;;;;;;5083985;28;20039;-78
2022/11/12 09:50:57;;;;;;;24.55;11.00;;;;;;;;;;5085107;28;20150;-78
2022/11/12 09:53:35;;;;;;;21.63;10.52;;;;;;;;;;5088184;28;20032;-77
2022/11/12 09:56:05;;;;;;;27.65;12.15;;;;;;;;;;5096346;28;20012;-77
2022/11/12 09:58:31;;;;;;;27.17;13.85;;;;;;;;;;5098780;28;20099;-76
2022/11/12 10:01:00;;;;;;;22.63;11.77;;;;;;;;;;5099984;28;20028;-75
2022/11/12 10:03:38;;;;;;;23.33;12.60;;;;;;;;;;5100290;28;20394;-76
2022/11/12 10:06:09;;;;;;;20.95;12.38;;;;;;;;;;5086683;28;20497;-77
2022/11/12 10:08:48;;;;;;;21.30;12.45;;;;;;;;;;5077808;28;20027;-78
2022/11/12 10:11:16;;;;;;;22.88;12.98;;;;;;;;;;5078508;28;20089;-77
2022/11/12 10:13:42;;;;;;;26.15;12.43;;;;;;;;;;5082521;28;20390;-78
2022/11/12 10:19:15;;;;;;;27.05;13.15;;;;;;;;;;5082122;28;20112;-77
2022/11/12 10:21:57;;;;;;;30.23;13.25;;;;;;;;;;5081623;28;20033;-78
2022/11/12 10:24:23;;;;;;;22.00;14.07;;;;;;;;;;5078140;28;20025;-79
2022/11/12 10:26:51;;;;;;;26.83;16.13;;;;;;;;;;5083838;28;20384;-76
2022/11/12 10:29:30;;;;;;;24.00;13.15;;;;;;;;;;5083129;28;20036;-77
2022/11/12 10:31:56;;;;;;;23.08;13.63;;;;;;;;;;5086219;28;20024;-77
2022/11/12 10:34:24;;;;;;;24.67;13.10;;;;;;;;;;5082758;28;20454;-77
2022/11/12 10:37:11;;;;;;;26.23;13.45;;;;;;;;;;5079024;28;20043;-78
2022/11/12 10:39:36;;;;;;;28.17;13.05;;;;;;;;;;5080196;28;20078;-79
2022/11/12 10:42:13;;;;;;;29.45;15.63;;;;;;;;;;5080321;28;20024;-78
2022/11/12 10:44:42;;;;;;;25.38;13.32;;;;;;;;;;5086175;28;20024;-78
2022/11/12 10:47:25;;;;;;;22.58;14.18;;;;;;;;;;5086155;28;20025;-78
2022/11/12 10:50:02;;;;;;;31.08;14.95;;;;;;;;;;5080401;28;20051;-77
2022/11/12 10:52:28;;;;;;;23.02;12.60;;;;;;;;;;5083298;28;20029;-76
2022/11/12 10:55:04;;;;;;;33.92;14.18;;;;;;;;;;5081650;28;20059;-78
2022/11/12 10:57:30;;;;;;;22.40;11.75;;;;;;;;;;5082512;28;20021;-78
2022/11/12 11:00:25;;;;;;;26.05;13.05;;;;;;;;;;5080298;28;20027;-78
2022/11/12 11:02:55;;;;;;;24.85;12.90;;;;;;;;;;5065966;28;20046;-77
2022/11/12 11:05:30;;;;;;;25.25;13.43;;;;;;;;;;5077428;28;20106;-77
2022/11/12 11:07:56;;;;;;;21.30;12.02;;;;;;;;;;5076954;28;20039;-79
2022/11/12 11:10:27;;;;;;;22.48;10.55;;;;;;;;;;5076771;28;20112;-78
2022/11/12 11:13:13;;;;;;;20.17;10.93;;;;;;;;;;5078337;28;20021;-77
2022/11/12 11:15:39;;;;;;;19.00;10.60;;;;;;;;;;5069409;28;20098;-78
2022/11/12 11:18:07;;;;;;;23.50;11.65;;;;;;;;;;5081871;28;20020;-77
2022/11/12 11:20:37;;;;;;;16.15;9.57;;;;;;;;;;5083532;28;20024;-77
2022/11/12 11:23:11;;;;;;;23.90;10.82;;;;;;;;;;5080309;28;20103;-78
2022/11/12 11:25:38;;;;;;;21.48;10.40;;;;;;;;;;5077058;28;20044;-78
2022/11/12 11:28:22;;;;;;;21.58;10.43;;;;;;;;;;5075986;28;20067;-78
2022/11/12 11:30:59;;;;;;;15.00;8.00;;;;;;;;;;5081696;28;20028;-79
2022/11/12 11:33:38;;;;;;;16.30;9.20;;;;;;;;;;5089670;28;20044;-78
2022/11/12 11:36:13;;;;;;;20.65;8.65;;;;;;;;;;5079997;28;20021;-78
2022/11/12 11:38:57;;;;;;;22.83;14.68;;;;;;;;;;5080206;28;20050;-79
2022/11/12 11:41:42;;;;;;;16.98;8.15;;;;;;;;;;5077090;28;20067;-75
2022/11/12 11:44:14;;;;;;;15.07;7.90;;;;;;;;;;5075919;28;20035;-76
2022/11/12 11:46:49;;;;;;;12.40;6.80;;;;;;;;;;5079970;28;20028;-76
2022/11/12 11:49:26;;;;;;;13.35;7.57;;;;;;;;;;5084569;28;20035;-75
2022/11/12 11:51:54;;;;;;;16.92;7.43;;;;;;;;;;5097261;28;20101;-75
2022/11/12 11:54:33;;;;;;;19.55;8.70;;;;;;;;;;5085093;28;20470;-76
2022/11/12 11:57:01;;;;;;;17.90;7.97;;;;;;;;;;5074797;28;20386;-76
2022/11/12 11:59:46;;;;;;;12.02;6.50;;;;;;;;;;5076275;28;20024;-76
2022/11/12 12:02:12;;;;;;;;;;;;;;;;;;5078192;28;20032;-77
2022/11/12 12:04:49;;;;;;;14.65;6.75;;;;;;;;;;5078290;28;19905;-76
2022/11/12 12:07:28;;;;;;;16.25;7.70;;;;;;;;;;5080313;28;20062;-76
2022/11/12 12:10:00;;;;;;;22.17;7.40;;;;;;;;;;5089177;28;20425;-76
2022/11/12 12:12:36;;;;;;;13.25;7.22;;;;;;;;;;5092766;28;20021;-76
2022/11/12 12:15:02;;;;;;;14.85;6.78;;;;;;;;;;5096203;28;20028;-75
2022/11/12 12:17:47;;;;;;;17.23;8.52;;;;;;;;;;5095281;28;20035;-75
2022/11/12 12:20:18;;;;;;;12.15;6.82;;;;;;;;;;5091103;28;20021;-76
2022/11/12 12:22:49;;;;;;;14.38;6.85;;;;;;;;;;5091846;28;20078;-76
2022/11/12 12:25:27;;;;;;;11.65;7.13;;;;;;;;;;5082924;28;20122;-76
2022/11/12 12:27:56;;;;;;;19.58;9.90;;;;;;;;;;5082470;28;20140;-76
2022/11/12 12:30:23;;;;;;;15.40;7.45;;;;;;;;;;5078476;28;20059;-76
2022/11/12 12:32:49;;;;;;;18.38;7.47;;;;;;;;;;5078192;28;20033;-77
2022/11/12 12:35:21;;;;;;;13.50;6.53;;;;;;;;;;5081110;28;20029;-77
2022/11/12 12:37:50;;;;;;;17.58;8.13;;;;;;;;;;5084875;28;20111;-77
2022/11/12 12:40:26;;;;;;;16.58;7.30;;;;;;;;;;5063273;28;20074;-76
2022/11/12 12:42:56;;;;;;;16.67;8.15;;;;;;;;;;5077804;28;20021;-75
2022/11/12 12:45:27;;;;;;;16.70;7.75;;;;;;;;;;5077180;28;20063;-76
2022/11/12 12:47:54;;;;;;;13.20;7.75;;;;;;;;;;5074891;28;20033;-77
2022/11/12 12:50:21;;;;;;;13.25;7.45;;;;;;;;;;5075189;28;20527;-77
2022/11/12 12:52:59;;;;;;;20.88;7.97;;;;;;;;;;5075875;28;20138;-76
2022/11/12 12:55:34;;;;;;;34.55;16.48;;;;;;;;;;5075118;28;20036;-76
2022/11/12 12:58:00;;;;;;;33.72;16.52;;;;;;;;;;5073768;28;20120;-76
2022/11/12 13:00:40;;;;;;;129.57;55.50;;;;;;;;;;5073489;28;20056;-76
2022/11/12 13:03:06;;;;;;;53.40;23.58;;;;;;;;;;5073611;28;20043;-76
2022/11/12 13:05:32;;;;;;;85.95;38.80;;;;;;;;;;5074623;28;20054;-77
2022/11/12 13:08:00;;;;;;;92.50;39.65;;;;;;;;;;5074770;28;20020;-76
2022/11/12 13:10:36;;;;;;;137.48;59.72;;;;;;;;;;5074007;28;20063;-77
2022/11/12 13:13:24;;;;;;;32.47;14.90;;;;;;;;;;5073272;28;20431;-75
2022/11/12 13:15:54;;;;;;;21.08;10.38;;;;;;;;;;5073439;28;20032;-77
2022/11/12 13:18:39;;;;;;;20.63;9.02;;;;;;;;;;5077322;28;20150;-76
2022/11/12 13:21:09;;;;;;;22.58;9.20;;;;;;;;;;5078549;28;20103;-77
2022/11/12 13:24:07;;;;;;;17.60;9.30;;;;;;;;;;5078535;28;20031;-76
2022/11/12 13:26:39;;;;;;;20.02;10.02;;;;;;;;;;5078419;28;20081;-75
2022/11/12 13:29:18;;;;;;;21.13;9.93;;;;;;;;;;5078260;28;20028;-77
2022/11/12 13:31:44;;;;;;;19.05;10.98;;;;;;;;;;5077902;28;20028;-76
2022/11/12 13:34:25;;;;;;;19.48;11.50;;;;;;;;;;5078620;28;20393;-77
2022/11/12 13:37:02;;;;;;;25.50;13.27;;;;;;;;;;5077904;28;20456;-76
2022/11/12 13:39:28;;;;;;;26.70;12.15;;;;;;;;;;5077049;28;20032;-76
2022/11/12 13:44:43;;;;;;;28.58;12.35;;;;;;;;;;5077595;28;20082;-77
2022/11/12 13:47:15;;;;;;;26.02;12.20;;;;;;;;;;5076617;28;20031;-77
2022/11/12 13:49:43;;;;;;;26.25;12.23;;;;;;;;;;5075905;28;20028;-75
2022/11/12 13:52:12;;;;;;;32.35;13.93;;;;;;;;;;5077102;28;20397;-76
2022/11/12 13:54:38;;;;;;;39.80;14.80;;;;;;;;;;5076584;28;20047;-76
2022/11/12 13:57:22;;;;;;;27.23;14.77;;;;;;;;;;5077401;28;20462;-77
2022/11/12 13:59:48;;;;;;;56.83;25.20;;;;;;;;;;5077064;28;20020;-76
2022/11/12 14:02:22;;;;;;;31.17;15.05;;;;;;;;;;5079191;28;20024;-76
2022/11/12 14:04:48;;;;;;;32.78;14.95;;;;;;;;;;5080194;28;20028;-76
2022/11/12 14:07:27;;;;;;;31.08;15.88;;;;;;;;;;5080434;28;20036;-76
2022/11/12 14:10:11;;;;;;;29.65;15.10;;;;;;;;;;5078312;28;20432;-75
2022/11/12 14:12:56;;;;;;;47.40;19.83;;;;;;;;;;5077790;28;20021;-76
2022/11/12 14:15:30;;;;;;;27.40;14.18;;;;;;;;;;5077640;28;20029;-77
2022/11/12 14:17:56;;;;;;;26.45;13.45;;;;;;;;;;5076378;28;20031;-77
2022/11/12 14:20:30;;;;;;;31.38;14.65;;;;;;;;;;5077152;28;20095;-76
2022/11/12 14:22:56;;;;;;;37.50;14.30;;;;;;;;;;5077602;28;20465;-76
2022/11/12 14:25:26;;;;;;;31.02;13.07;;;;;;;;;;5077201;28;20028;-75
2022/11/12 14:27:53;;;;;;;35.67;14.63;;;;;;;;;;5077434;28;20056;-77
2022/11/12 14:30:32;;;;;;;40.50;16.70;;;;;;;;;;5077363;28;20398;-76
2022/11/12 14:32:59;;;;;;;36.65;15.98;;;;;;;;;;5078179;28;20032;-77
2022/11/12 14:35:30;;;;;;;35.92;15.48;;;;;;;;;;5084871;28;20029;-75
2022/11/12 14:38:03;;;;;;;29.42;13.95;;;;;;;;;;5092473;28;20013;-77
2022/11/12 14:40:30;;;;;;;34.13;13.68;;;;;;;;;;5098346;28;20012;-76
2022/11/12 14:42:56;;;;;;;31.92;13.35;;;;;;;;;;5098753;28;20017;-76
2022/11/12 14:45:22;;;;;;;34.83;14.27;;;;;;;;;;5098672;28;20029;-75
2022/11/12 14:47:49;;;;;;;31.23;14.38;;;;;;;;;;5089520;28;20037;-76